sensor_id;sensor_type;location;lat;lon;timestamp;pressure;altitude;pressure_sealevel;temperature;humidity
6345;BME280;3205;42.666;23.264;2023-01-26T00:01:15;94797.03;;;0.88;nan
6345;BME280;3205;42.666;23.264;2023-01-26T00:03:42;94787.16;;;0.75;nan
6345;BME280;3205;42.666;23.264;2023-01-26T00:06:10;94793.13;;;0.75;nan
6345;BME280;3205;42.666;23.264;2023-01-26T00:08:38;94786.09;;;0.86;nan
6345;BME280;3205;42.666;23.264;2023-01-26T00:11:06;94797.31;;;0.76;nan
6345;BME280;3205;42.666;23.264;2023-01-26T00:13:33;94790.25;;;0.87;nan
6345;BME280;3205;42.666;23.264;2023-01-26T00:15:59;94809.56;;;0.71;nan
6345;BME280;3205;42.666;23.264;2023-01-26T00:18:26;94805.91;;;0.62;nan
6345;BME280;3205;42.666;23.264;2023-01-26T00:20:54;94806.41;;;0.84;nan
6345;BME280;3205;42.666;23.264;2023-01-26T00:23:21;94791.06;;;0.73;nan
6345;BME280;3205;42.666;23.264;2023-01-26T00:25:48;94800.69;;;0.72;nan
6345;BME280;3205;42.666;23.264;2023-01-26T00:28:14;94801.22;;;0.64;nan
6345;BME280;3205;42.666;23.264;2023-01-26T00:30:40;94792.34;;;0.65;nan
6345;BME280;3205;42.666;23.264;2023-01-26T00:33:06;94784.56;;;0.60;nan
6345;BME280;3205;42.666;23.264;2023-01-26T00:35:32;94774.16;;;0.70;nan
6345;BME280;3205;42.666;23.264;2023-01-26T00:37:58;94771.31;;;0.67;nan
6345;BME280;3205;42.666;23.264;2023-01-26T00:40:24;94763.75;;;0.45;nan
6345;BME280;3205;42.666;23.264;2023-01-26T00:42:51;94788.47;;;0.48;nan
6345;BME280;3205;42.666;23.264;2023-01-26T00:45:19;94759.34;;;0.61;nan
6345;BME280;3205;42.666;23.264;2023-01-26T00:47:45;94764.28;;;0.62;nan
6345;BME280;3205;42.666;23.264;2023-01-26T00:50:11;94763.78;;;0.55;nan
6345;BME280;3205;42.666;23.264;2023-01-26T00:52:37;94784.56;;;0.40;nan
6345;BME280;3205;42.666;23.264;2023-01-26T00:55:04;94765.59;;;0.45;nan
6345;BME280;3205;42.666;23.264;2023-01-26T00:57:31;94761.19;;;0.55;nan
6345;BME280;3205;42.666;23.264;2023-01-26T00:59:58;94768.47;;;0.48;nan
6345;BME280;3205;42.666;23.264;2023-01-26T01:02:24;94744.78;;;0.50;nan
6345;BME280;3205;42.666;23.264;2023-01-26T01:04:50;94750.75;;;0.45;nan
6345;BME280;3205;42.666;23.264;2023-01-26T01:07:16;94750.50;;;0.37;nan
6345;BME280;3205;42.666;23.264;2023-01-26T01:09:44;94746.59;;;0.59;nan
6345;BME280;3205;42.666;23.264;2023-01-26T01:12:11;94751.00;;;0.64;nan
6345;BME280;3205;42.666;23.264;2023-01-26T01:14:37;94743.22;;;0.59;nan
6345;BME280;3205;42.666;23.264;2023-01-26T01:17:04;94748.94;;;0.51;nan
6345;BME280;3205;42.666;23.264;2023-01-26T01:19:30;94756.00;;;0.50;nan
6345;BME280;3205;42.666;23.264;2023-01-26T01:21:56;94737.25;;;0.38;nan
6345;BME280;3205;42.666;23.264;2023-01-26T01:24:22;94745.03;;;0.58;nan
6345;BME280;3205;42.666;23.264;2023-01-26T01:26:49;94745.06;;;0.43;nan
6345;BME280;3205;42.666;23.264;2023-01-26T01:29:15;94747.66;;;0.53;nan
6345;BME280;3205;42.666;23.264;2023-01-26T01:31:41;94731.03;;;0.49;nan
6345;BME280;3205;42.666;23.264;2023-01-26T01:34:08;94743.47;;;0.52;nan
6345;BME280;3205;42.666;23.264;2023-01-26T01:36:34;94739.06;;;0.48;nan
6345;BME280;3205;42.666;23.264;2023-01-26T01:39:00;94735.16;;;0.55;nan
6345;BME280;3205;42.666;23.264;2023-01-26T01:41:27;94746.88;;;0.53;nan
6345;BME280;3205;42.666;23.264;2023-01-26T01:44:12;94738.53;;;0.66;nan
6345;BME280;3205;42.666;23.264;2023-01-26T01:46:42;94742.69;;;0.67;nan
6345;BME280;3205;42.666;23.264;2023-01-26T01:49:16;94732.81;;;0.64;nan
6345;BME280;3205;42.666;23.264;2023-01-26T01:51:45;94736.97;;;0.74;nan
6345;BME280;3205;42.666;23.264;2023-01-26T01:54:19;94738.53;;;0.66;nan
6345;BME280;3205;42.666;23.264;2023-01-26T01:56:50;94725.28;;;0.62;nan
6345;BME280;3205;42.666;23.264;2023-01-26T01:59:19;94723.72;;;0.61;nan
6345;BME280;3205;42.666;23.264;2023-01-26T02:01:46;94736.72;;;0.56;nan
6345;BME280;3205;42.666;23.264;2023-01-26T02:04:14;94735.16;;;0.60;nan
6345;BME280;3205;42.666;23.264;2023-01-26T02:06:46;94728.16;;;0.61;nan
6345;BME280;3205;42.666;23.264;2023-01-26T02:09:13;94726.31;;;0.51;nan
6345;BME280;3205;42.666;23.264;2023-01-26T02:11:56;94705.50;;;0.71;nan
6345;BME280;3205;42.666;23.264;2023-01-26T02:14:24;94723.97;;;0.65;nan
6345;BME280;3205;42.666;23.264;2023-01-26T02:16:52;94710.22;;;0.39;nan
6345;BME280;3205;42.666;23.264;2023-01-26T02:19:24;94699.53;;;0.41;nan
6345;BME280;3205;42.666;23.264;2023-01-26T02:21:54;94681.84;;;0.63;nan
6345;BME280;3205;42.666;23.264;2023-01-26T02:24:25;94691.47;;;0.62;nan
6345;BME280;3205;42.666;23.264;2023-01-26T02:26:55;94670.91;;;0.71;nan
6345;BME280;3205;42.666;23.264;2023-01-26T02:29:21;94676.41;;;0.44;nan
6345;BME280;3205;42.666;23.264;2023-01-26T02:31:48;94667.31;;;0.42;nan
6345;BME280;3205;42.666;23.264;2023-01-26T02:34:14;94667.31;;;0.52;nan
6345;BME280;3205;42.666;23.264;2023-01-26T02:36:40;94669.66;;;0.33;nan
6345;BME280;3205;42.666;23.264;2023-01-26T02:39:32;94663.91;;;0.51;nan
6345;BME280;3205;42.666;23.264;2023-01-26T02:42:01;94661.84;;;0.38;nan
6345;BME280;3205;42.666;23.264;2023-01-26T02:44:45;94658.47;;;0.43;nan
6345;BME280;3205;42.666;23.264;2023-01-26T02:47:14;94638.72;;;0.37;nan
6345;BME280;3205;42.666;23.264;2023-01-26T02:49:41;94636.94;;;0.37;nan
6345;BME280;3205;42.666;23.264;2023-01-26T02:52:16;94650.69;;;0.38;nan
6345;BME280;3205;42.666;23.264;2023-01-26T02:54:42;94652.78;;;0.31;nan
6345;BME280;3205;42.666;23.264;2023-01-26T02:57:27;94634.06;;;0.39;nan
6345;BME280;3205;42.666;23.264;2023-01-26T02:59:53;94636.38;;;0.50;nan
6345;BME280;3205;42.666;23.264;2023-01-26T03:02:20;94636.88;;;0.52;nan
6345;BME280;3205;42.666;23.264;2023-01-26T03:04:46;94626.75;;;0.51;nan
6345;BME280;3205;42.666;23.264;2023-01-26T03:07:12;94641.59;;;0.35;nan
6345;BME280;3205;42.666;23.264;2023-01-26T03:09:38;94617.44;;;0.30;nan
6345;BME280;3205;42.666;23.264;2023-01-26T03:12:05;94623.16;;;0.22;nan
6345;BME280;3205;42.666;23.264;2023-01-26T03:14:32;94622.09;;;0.38;nan
6345;BME280;3205;42.666;23.264;2023-01-26T03:16:58;94622.09;;;0.28;nan
6345;BME280;3205;42.666;23.264;2023-01-26T03:19:24;94609.13;;;0.33;nan
6345;BME280;3205;42.666;23.264;2023-01-26T03:22:09;94610.44;;;0.30;nan
6345;BME280;3205;42.666;23.264;2023-01-26T03:24:54;94606.25;;;0.34;nan
6345;BME280;3205;42.666;23.264;2023-01-26T03:27:40;94608.25;;;0.62;nan
6345;BME280;3205;42.666;23.264;2023-01-26T03:30:08;94599.97;;;0.50;nan
6345;BME280;3205;42.666;23.264;2023-01-26T03:32:35;94601.81;;;0.40;nan
6345;BME280;3205;42.666;23.264;2023-01-26T03:35:01;94597.69;;;0.34;nan
6345;BME280;3205;42.666;23.264;2023-01-26T03:37:28;94600.28;;;0.29;nan
6345;BME280;3205;42.666;23.264;2023-01-26T03:40:01;94594.75;;;0.55;nan
6345;BME280;3205;42.666;23.264;2023-01-26T03:42:45;94603.63;;;0.39;nan
6345;BME280;3205;42.666;23.264;2023-01-26T03:45:30;94597.94;;;0.27;nan
6345;BME280;3205;42.666;23.264;2023-01-26T03:48:14;94596.09;;;0.38;nan
6345;BME280;3205;42.666;23.264;2023-01-26T03:50:59;94619.50;;;0.38;nan
6345;BME280;3205;42.666;23.264;2023-01-26T03:53:43;94596.63;;;0.30;nan
6345;BME280;3205;42.666;23.264;2023-01-26T03:56:28;94591.69;;;0.33;nan
6345;BME280;3205;42.666;23.264;2023-01-26T03:58:58;94579.66;;;0.52;nan
6345;BME280;3205;42.666;23.264;2023-01-26T04:01:34;94581.28;;;0.38;nan
6345;BME280;3205;42.666;23.264;2023-01-26T04:04:01;94580.22;;;0.39;nan
6345;BME280;3205;42.666;23.264;2023-01-26T04:06:47;94575.50;;;0.56;nan
6345;BME280;3205;42.666;23.264;2023-01-26T04:09:32;94588.56;;;0.41;nan
6345;BME280;3205;42.666;23.264;2023-01-26T04:11:59;94573.78;;;0.17;nan
6345;BME280;3205;42.666;23.264;2023-01-26T04:14:25;94564.47;;;0.11;nan
6345;BME280;3205;42.666;23.264;2023-01-26T04:17:10;94584.22;;;0.12;nan
6345;BME280;3205;42.666;23.264;2023-01-26T04:19:54;94564.97;;;0.08;nan
6345;BME280;3205;42.666;23.264;2023-01-26T04:22:40;94541.59;;;0.08;nan
6345;BME280;3205;42.666;23.264;2023-01-26T04:25:11;94557.47;;;0.01;nan
6345;BME280;3205;42.666;23.264;2023-01-26T04:27:37;94546.81;;;-0.02;nan
6345;BME280;3205;42.666;23.264;2023-01-26T04:30:05;94555.28;;;0.33;nan
6345;BME280;3205;42.666;23.264;2023-01-26T04:32:32;94531.38;;;0.36;nan
6345;BME280;3205;42.666;23.264;2023-01-26T04:34:58;94538.44;;;0.21;nan
6345;BME280;3205;42.666;23.264;2023-01-26T04:37:25;94542.63;;;0.12;nan
6345;BME280;3205;42.666;23.264;2023-01-26T04:39:51;94523.03;;;0.39;nan
6345;BME280;3205;42.666;23.264;2023-01-26T04:42:17;94539.44;;;0.40;nan
6345;BME280;3205;42.666;23.264;2023-01-26T04:44:43;94543.25;;;0.52;nan
6345;BME280;3205;42.666;23.264;2023-01-26T04:47:09;94550.66;;;0.30;nan
6345;BME280;3205;42.666;23.264;2023-01-26T04:49:36;94557.31;;;0.46;nan
6345;BME280;3205;42.666;23.264;2023-01-26T04:52:02;94565.72;;;0.28;nan
6345;BME280;3205;42.666;23.264;2023-01-26T04:54:28;94559.75;;;0.18;nan
6345;BME280;3205;42.666;23.264;2023-01-26T04:56:54;94565.50;;;0.20;nan
6345;BME280;3205;42.666;23.264;2023-01-26T04:59:20;94555.81;;;0.35;nan
6345;BME280;3205;42.666;23.264;2023-01-26T05:01:47;94557.91;;;0.28;nan
6345;BME280;3205;42.666;23.264;2023-01-26T05:04:13;94553.47;;;0.29;nan
6345;BME280;3205;42.666;23.264;2023-01-26T05:06:40;94577.16;;;0.22;nan
6345;BME280;3205;42.666;23.264;2023-01-26T05:09:06;94563.13;;;0.28;nan
6345;BME280;3205;42.666;23.264;2023-01-26T05:11:33;94551.19;;;0.22;nan
6345;BME280;3205;42.666;23.264;2023-01-26T05:13:59;94550.84;;;0.44;nan
6345;BME280;3205;42.666;23.264;2023-01-26T05:16:25;94552.06;;;0.61;nan
6345;BME280;3205;42.666;23.264;2023-01-26T05:18:52;94546.38;;;0.54;nan
6345;BME280;3205;42.666;23.264;2023-01-26T05:21:19;94551.59;;;0.44;nan
6345;BME280;3205;42.666;23.264;2023-01-26T05:23:47;94555.00;;;0.45;nan
6345;BME280;3205;42.666;23.264;2023-01-26T05:26:13;94540.47;;;0.39;nan
6345;BME280;3205;42.666;23.264;2023-01-26T05:28:39;94545.63;;;0.44;nan
6345;BME280;3205;42.666;23.264;2023-01-26T05:31:06;94534.13;;;0.55;nan
6345;BME280;3205;42.666;23.264;2023-01-26T05:33:32;94536.53;;;0.46;nan
6345;BME280;3205;42.666;23.264;2023-01-26T05:36:02;94529.16;;;0.68;nan
6345;BME280;3205;42.666;23.264;2023-01-26T05:38:29;94525.00;;;0.67;nan
6345;BME280;3205;42.666;23.264;2023-01-26T05:40:56;94543.25;;;0.57;nan
6345;BME280;3205;42.666;23.264;2023-01-26T05:43:22;94529.75;;;0.55;nan
6345;BME280;3205;42.666;23.264;2023-01-26T05:45:48;94538.06;;;0.52;nan
6345;BME280;3205;42.666;23.264;2023-01-26T05:48:14;94535.97;;;0.54;nan
6345;BME280;3205;42.666;23.264;2023-01-26T05:50:40;94538.78;;;0.68;nan
6345;BME280;3205;42.666;23.264;2023-01-26T05:53:07;94531.25;;;0.61;nan
6345;BME280;3205;42.666;23.264;2023-01-26T05:55:33;94534.13;;;0.60;nan
6345;BME280;3205;42.666;23.264;2023-01-26T05:57:59;94552.56;;;0.68;nan
6345;BME280;3205;42.666;23.264;2023-01-26T06:00:26;94537.81;;;0.54;nan
6345;BME280;3205;42.666;23.264;2023-01-26T06:02:52;94538.53;;;0.59;nan
6345;BME280;3205;42.666;23.264;2023-01-26T06:05:19;94537.22;;;0.67;nan
6345;BME280;3205;42.666;23.264;2023-01-26T06:07:45;94532.59;;;0.59;nan
6345;BME280;3205;42.666;23.264;2023-01-26T06:10:11;94545.88;;;0.57;nan
6345;BME280;3205;42.666;23.264;2023-01-26T06:12:38;94539.34;;;0.55;nan
6345;BME280;3205;42.666;23.264;2023-01-26T06:15:06;94538.59;;;0.49;nan
6345;BME280;3205;42.666;23.264;2023-01-26T06:17:32;94525.53;;;0.64;nan
6345;BME280;3205;42.666;23.264;2023-01-26T06:19:58;94520.03;;;0.71;nan
6345;BME280;3205;42.666;23.264;2023-01-26T06:22:25;94525.69;;;0.87;nan
6345;BME280;3205;42.666;23.264;2023-01-26T06:24:51;94537.69;;;0.78;nan
6345;BME280;3205;42.666;23.264;2023-01-26T06:27:17;94522.13;;;0.69;nan
6345;BME280;3205;42.666;23.264;2023-01-26T06:29:44;94516.88;;;0.78;nan
6345;BME280;3205;42.666;23.264;2023-01-26T06:32:11;94504.34;;;0.85;nan
6345;BME280;3205;42.666;23.264;2023-01-26T06:34:37;94526.56;;;0.68;nan
6345;BME280;3205;42.666;23.264;2023-01-26T06:37:04;94515.09;;;0.69;nan
6345;BME280;3205;42.666;23.264;2023-01-26T06:39:30;94508.75;;;0.90;nan
6345;BME280;3205;42.666;23.264;2023-01-26T06:41:56;94502.50;;;0.86;nan
6345;BME280;3205;42.666;23.264;2023-01-26T06:44:22;94504.63;;;0.79;nan
6345;BME280;3205;42.666;23.264;2023-01-26T06:46:48;94516.88;;;0.78;nan
6345;BME280;3205;42.666;23.264;2023-01-26T06:49:15;94517.28;;;0.95;nan
6345;BME280;3205;42.666;23.264;2023-01-26T06:51:51;94511.78;;;1.02;nan
6345;BME280;3205;42.666;23.264;2023-01-26T06:54:19;94511.78;;;1.02;nan
6345;BME280;3205;42.666;23.264;2023-01-26T06:56:46;94499.22;;;1.14;nan
6345;BME280;3205;42.666;23.264;2023-01-26T06:59:12;94493.56;;;1.02;nan
6345;BME280;3205;42.666;23.264;2023-01-26T07:01:41;94493.84;;;1.34;nan
6345;BME280;3205;42.666;23.264;2023-01-26T07:04:08;94498.22;;;1.10;nan
6345;BME280;3205;42.666;23.264;2023-01-26T07:06:35;94487.16;;;1.23;nan
6345;BME280;3205;42.666;23.264;2023-01-26T07:09:01;94490.06;;;1.16;nan
6345;BME280;3205;42.666;23.264;2023-01-26T07:11:28;94488.84;;;1.09;nan
6345;BME280;3205;42.666;23.264;2023-01-26T07:13:55;94483.19;;;1.30;nan
6345;BME280;3205;42.666;23.264;2023-01-26T07:16:21;94487.72;;;1.20;nan
6345;BME280;3205;42.666;23.264;2023-01-26T07:18:47;94500.81;;;1.10;nan
6345;BME280;3205;42.666;23.264;2023-01-26T07:21:15;94484.22;;;1.34;nan
6345;BME280;3205;42.666;23.264;2023-01-26T07:23:43;94479.13;;;1.52;nan
6345;BME280;3205;42.666;23.264;2023-01-26T07:26:10;94477.41;;;1.38;nan
6345;BME280;3205;42.666;23.264;2023-01-26T07:28:36;94483.94;;;1.36;nan
6345;BME280;3205;42.666;23.264;2023-01-26T07:31:03;94486.19;;;1.47;nan
6345;BME280;3205;42.666;23.264;2023-01-26T07:33:30;94480.84;;;1.62;nan
6345;BME280;3205;42.666;23.264;2023-01-26T07:35:57;94490.81;;;1.22;nan
6345;BME280;3205;42.666;23.264;2023-01-26T07:38:24;94469.78;;;1.46;nan
6345;BME280;3205;42.666;23.264;2023-01-26T07:40:51;94466.53;;;1.59;nan
6345;BME280;3205;42.666;23.264;2023-01-26T07:43:17;94463.44;;;1.57;nan
6345;BME280;3205;42.666;23.264;2023-01-26T07:45:44;94486.09;;;1.57;nan
6345;BME280;3205;42.666;23.264;2023-01-26T07:48:10;94484.34;;;1.52;nan
6345;BME280;3205;42.666;23.264;2023-01-26T07:50:36;94472.72;;;1.92;nan
6345;BME280;3205;42.666;23.264;2023-01-26T07:53:02;94475.53;;;1.72;nan
6345;BME280;3205;42.666;23.264;2023-01-26T07:55:28;94487.34;;;1.64;nan
6345;BME280;3205;42.666;23.264;2023-01-26T07:57:55;94492.19;;;1.76;nan
6345;BME280;3205;42.666;23.264;2023-01-26T08:00:22;94496.66;;;1.70;nan
6345;BME280;3205;42.666;23.264;2023-01-26T08:02:49;94474.13;;;1.84;nan
6345;BME280;3205;42.666;23.264;2023-01-26T08:05:15;94476.28;;;1.77;nan
6345;BME280;3205;42.666;23.264;2023-01-26T08:07:41;94468.47;;;1.77;nan
6345;BME280;3205;42.666;23.264;2023-01-26T08:10:09;94466.06;;;1.81;nan
6345;BME280;3205;42.666;23.264;2023-01-26T08:12:36;94471.44;;;1.66;nan
6345;BME280;3205;42.666;23.264;2023-01-26T08:15:04;94470.63;;;1.94;nan
6345;BME280;3205;42.666;23.264;2023-01-26T08:17:30;94465.13;;;1.72;nan
6345;BME280;3205;42.666;23.264;2023-01-26T08:19:58;94448.94;;;1.98;nan
6345;BME280;3205;42.666;23.264;2023-01-26T08:22:24;94443.34;;;2.10;nan
6345;BME280;3205;42.666;23.264;2023-01-26T08:24:51;94447.28;;;2.07;nan
6345;BME280;3205;42.666;23.264;2023-01-26T08:27:17;94433.78;;;2.00;nan
6345;BME280;3205;42.666;23.264;2023-01-26T08:29:43;94443.34;;;2.10;nan
6345;BME280;3205;42.666;23.264;2023-01-26T08:32:10;94451.63;;;2.17;nan
6345;BME280;3205;42.666;23.264;2023-01-26T08:34:36;94451.41;;;1.90;nan
6345;BME280;3205;42.666;23.264;2023-01-26T08:37:02;94435.84;;;2.03;nan
6345;BME280;3205;42.666;23.264;2023-01-26T08:39:29;94448.50;;;1.91;nan
6345;BME280;3205;42.666;23.264;2023-01-26T08:41:55;94431.81;;;1.92;nan
6345;BME280;3205;42.666;23.264;2023-01-26T08:44:21;94432.31;;;1.94;nan
6345;BME280;3205;42.666;23.264;2023-01-26T08:46:47;94442.19;;;1.97;nan
6345;BME280;3205;42.666;23.264;2023-01-26T08:49:14;94438.38;;;2.31;nan
6345;BME280;3205;42.666;23.264;2023-01-26T08:51:41;94440.09;;;2.17;nan
6345;BME280;3205;42.666;23.264;2023-01-26T08:54:07;94452.69;;;2.11;nan
6345;BME280;3205;42.666;23.264;2023-01-26T08:56:33;94446.13;;;2.18;nan
6345;BME280;3205;42.666;23.264;2023-01-26T08:59:00;94436.66;;;2.22;nan
6345;BME280;3205;42.666;23.264;2023-01-26T09:01:26;94431.59;;;2.12;nan
6345;BME280;3205;42.666;23.264;2023-01-26T09:03:52;94439.06;;;2.18;nan
6345;BME280;3205;42.666;23.264;2023-01-26T09:06:21;94445.69;;;2.53;nan
6345;BME280;3205;42.666;23.264;2023-01-26T09:08:47;94455.31;;;2.52;nan
6345;BME280;3205;42.666;23.264;2023-01-26T09:11:14;94476.38;;;2.37;nan
6345;BME280;3205;42.666;23.264;2023-01-26T09:13:40;94452.81;;;2.24;nan
6345;BME280;3205;42.666;23.264;2023-01-26T09:16:12;94447.59;;;2.24;nan
6345;BME280;3205;42.666;23.264;2023-01-26T09:18:39;94448.81;;;2.31;nan
6345;BME280;3205;42.666;23.264;2023-01-26T09:21:07;94444.88;;;2.34;nan
6345;BME280;3205;42.666;23.264;2023-01-26T09:23:34;94432.91;;;2.33;nan
6345;BME280;3205;42.666;23.264;2023-01-26T09:26:01;94443.19;;;2.43;nan
6345;BME280;3205;42.666;23.264;2023-01-26T09:28:27;94424.38;;;2.46;nan
6345;BME280;3205;42.666;23.264;2023-01-26T09:30:54;94420.28;;;2.58;nan
6345;BME280;3205;42.666;23.264;2023-01-26T09:33:20;94420.22;;;2.45;nan
6345;BME280;3205;42.666;23.264;2023-01-26T09:35:47;94406.03;;;2.51;nan
6345;BME280;3205;42.666;23.264;2023-01-26T09:38:13;94396.66;;;2.50;nan
6345;BME280;3205;42.666;23.264;2023-01-26T09:40:47;94398.31;;;2.64;nan
6345;BME280;3205;42.666;23.264;2023-01-26T09:43:22;94396.25;;;2.61;nan
6345;BME280;3205;42.666;23.264;2023-01-26T09:46:00;94424.59;;;2.49;nan
6345;BME280;3205;42.666;23.264;2023-01-26T09:48:36;94425.34;;;2.50;nan
6345;BME280;3205;42.666;23.264;2023-01-26T09:51:09;94426.47;;;2.44;nan
6345;BME280;3205;42.666;23.264;2023-01-26T09:53:43;94392.22;;;2.69;nan
6345;BME280;3205;42.666;23.264;2023-01-26T09:56:16;94385.59;;;2.58;nan
6345;BME280;3205;42.666;23.264;2023-01-26T09:58:46;94380.50;;;2.66;nan
6345;BME280;3205;42.666;23.264;2023-01-26T10:01:19;94394.81;;;2.87;nan
6345;BME280;3205;42.666;23.264;2023-01-26T10:03:53;94388.97;;;2.77;nan
6345;BME280;3205;42.666;23.264;2023-01-26T10:06:23;94395.31;;;2.89;nan
6345;BME280;3205;42.666;23.264;2023-01-26T10:08:52;94390.31;;;2.56;nan
6345;BME280;3205;42.666;23.264;2023-01-26T10:11:25;94392.94;;;2.56;nan
6345;BME280;3205;42.666;23.264;2023-01-26T10:13:56;94358.44;;;2.77;nan
6345;BME280;3205;42.666;23.264;2023-01-26T10:16:24;94364.44;;;2.78;nan
6345;BME280;3205;42.666;23.264;2023-01-26T10:18:53;94368.94;;;2.72;nan
6345;BME280;3205;42.666;23.264;2023-01-26T10:21:24;94346.25;;;2.73;nan
6345;BME280;3205;42.666;23.264;2023-01-26T10:23:52;94339.41;;;2.58;nan
6345;BME280;3205;42.666;23.264;2023-01-26T10:26:20;94323.41;;;2.65;nan
6345;BME280;3205;42.666;23.264;2023-01-26T10:28:48;94316.44;;;2.60;nan
6345;BME280;3205;42.666;23.264;2023-01-26T10:31:16;94310.78;;;2.72;nan
6345;BME280;3205;42.666;23.264;2023-01-26T10:33:48;94317.41;;;2.64;nan
6345;BME280;3205;42.666;23.264;2023-01-26T10:36:16;94299.44;;;2.44;nan
6345;BME280;3205;42.666;23.264;2023-01-26T10:38:43;94299.72;;;2.61;nan
6345;BME280;3205;42.666;23.264;2023-01-26T10:41:24;94277.66;;;2.86;nan
6345;BME280;3205;42.666;23.264;2023-01-26T10:43:54;94278.41;;;2.73;nan
6345;BME280;3205;42.666;23.264;2023-01-26T10:46:29;94265.72;;;2.66;nan
6345;BME280;3205;42.666;23.264;2023-01-26T10:48:58;94279.88;;;2.92;nan
6345;BME280;3205;42.666;23.264;2023-01-26T10:51:28;94265.09;;;2.88;nan
6345;BME280;3205;42.666;23.264;2023-01-26T10:54:23;94256.13;;;3.07;nan
6345;BME280;3205;42.666;23.264;2023-01-26T10:56:52;94251.94;;;2.92;nan
6345;BME280;3205;42.666;23.264;2023-01-26T10:59:25;94262.00;;;2.99;nan
6345;BME280;3205;42.666;23.264;2023-01-26T11:01:54;94253.84;;;2.74;nan
6345;BME280;3205;42.666;23.264;2023-01-26T11:04:21;94237.25;;;2.83;nan
6345;BME280;3205;42.666;23.264;2023-01-26T11:06:48;94225.84;;;2.92;nan
6345;BME280;3205;42.666;23.264;2023-01-26T11:09:19;94221.13;;;3.21;nan
6345;BME280;3205;42.666;23.264;2023-01-26T11:11:57;94228.06;;;2.99;nan
6345;BME280;3205;42.666;23.264;2023-01-26T11:14:25;94224.03;;;3.06;nan
6345;BME280;3205;42.666;23.264;2023-01-26T11:16:56;94233.97;;;2.91;nan
6345;BME280;3205;42.666;23.264;2023-01-26T11:19:37;94211.94;;;3.10;nan
6345;BME280;3205;42.666;23.264;2023-01-26T11:22:11;94217.25;;;3.05;nan
6345;BME280;3205;42.666;23.264;2023-01-26T11:24:45;94215.59;;;3.09;nan
6345;BME280;3205;42.666;23.264;2023-01-26T11:27:24;94195.03;;;3.21;nan
6345;BME280;3205;42.666;23.264;2023-01-26T11:30:04;94186.19;;;3.17;nan
6345;BME280;3205;42.666;23.264;2023-01-26T11:32:43;94186.00;;;3.27;nan
6345;BME280;3205;42.666;23.264;2023-01-26T11:35:18;94195.47;;;3.23;nan
6345;BME280;3205;42.666;23.264;2023-01-26T11:37:50;94187.19;;;3.21;nan
6345;BME280;3205;42.666;23.264;2023-01-26T11:40:24;94188.69;;;3.49;nan
6345;BME280;3205;42.666;23.264;2023-01-26T11:46:15;94171.09;;;3.41;nan
6345;BME280;3205;42.666;23.264;2023-01-26T11:48:55;94175.47;;;3.67;nan
6345;BME280;3205;42.666;23.264;2023-01-26T11:51:35;94185.22;;;3.40;nan
6345;BME280;3205;42.666;23.264;2023-01-26T11:54:18;94192.03;;;3.14;nan
6345;BME280;3205;42.666;23.264;2023-01-26T11:56:54;94188.63;;;3.14;nan
6345;BME280;3205;42.666;23.264;2023-01-26T11:59:26;94182.13;;;3.38;nan
6345;BME280;3205;42.666;23.264;2023-01-26T12:01:58;94184.59;;;2.94;nan
6345;BME280;3205;42.666;23.264;2023-01-26T12:04:27;94173.53;;;2.97;nan
6345;BME280;3205;42.666;23.264;2023-01-26T12:07:00;94175.66;;;2.95;nan
6345;BME280;3205;42.666;23.264;2023-01-26T12:09:33;94163.50;;;2.91;nan
6345;BME280;3205;42.666;23.264;2023-01-26T12:12:05;94158.56;;;2.76;nan
6345;BME280;3205;42.666;23.264;2023-01-26T12:14:39;94148.31;;;2.80;nan
6345;BME280;3205;42.666;23.264;2023-01-26T12:17:32;94133.50;;;2.89;nan
6345;BME280;3205;42.666;23.264;2023-01-26T12:20:06;94153.34;;;2.90;nan
6345;BME280;3205;42.666;23.264;2023-01-26T12:22:41;94138.34;;;2.68;nan
6345;BME280;3205;42.666;23.264;2023-01-26T12:25:21;94129.66;;;2.59;nan
6345;BME280;3205;42.666;23.264;2023-01-26T12:27:52;94095.16;;;2.62;nan
6345;BME280;3205;42.666;23.264;2023-01-26T12:30:25;94096.72;;;2.63;nan
6345;BME280;3205;42.666;23.264;2023-01-26T12:32:55;94088.88;;;2.63;nan
6345;BME280;3205;42.666;23.264;2023-01-26T12:35:31;94106.06;;;2.51;nan
6345;BME280;3205;42.666;23.264;2023-01-26T12:38:03;94094.19;;;2.58;nan
6345;BME280;3205;42.666;23.264;2023-01-26T12:40:35;94095.75;;;2.73;nan
6345;BME280;3205;42.666;23.264;2023-01-26T12:43:13;94107.03;;;2.68;nan
6345;BME280;3205;42.666;23.264;2023-01-26T12:45:43;94106.56;;;2.66;nan
6345;BME280;3205;42.666;23.264;2023-01-26T12:48:16;94101.13;;;2.90;nan
6345;BME280;3205;42.666;23.264;2023-01-26T12:50:45;94091.88;;;2.84;nan
6345;BME280;3205;42.666;23.264;2023-01-26T12:53:16;94102.69;;;2.91;nan
6345;BME280;3205;42.666;23.264;2023-01-26T12:55:47;94091.28;;;2.87;nan
6345;BME280;3205;42.666;23.264;2023-01-26T12:58:17;94081.69;;;2.95;nan
6345;BME280;3205;42.666;23.264;2023-01-26T13:00:58;94073.66;;;3.05;nan
6345;BME280;3205;42.666;23.264;2023-01-26T13:03:30;94086.34;;;2.98;nan
6345;BME280;3205;42.666;23.264;2023-01-26T13:05:58;94073.41;;;2.93;nan
6345;BME280;3205;42.666;23.264;2023-01-26T13:08:49;94072.53;;;2.98;nan
6345;BME280;3205;42.666;23.264;2023-01-26T13:11:40;94082.88;;;2.90;nan
6345;BME280;3205;42.666;23.264;2023-01-26T13:14:32;94074.66;;;2.83;nan
6345;BME280;3205;42.666;23.264;2023-01-26T13:20:40;94096.13;;;2.80;nan
6345;BME280;3205;42.666;23.264;2023-01-26T13:23:38;94069.06;;;2.76;nan
6345;BME280;3205;42.666;23.264;2023-01-26T13:29:26;94080.94;;;2.95;nan
6345;BME280;3205;42.666;23.264;2023-01-26T13:31:54;94073.59;;;2.97;nan
6345;BME280;3205;42.666;23.264;2023-01-26T13:34:24;94048.25;;;2.97;nan
6345;BME280;3205;42.666;23.264;2023-01-26T13:36:55;94062.84;;;2.98;nan
6345;BME280;3205;42.666;23.264;2023-01-26T13:39:29;94063.72;;;2.94;nan
6345;BME280;3205;42.666;23.264;2023-01-26T13:41:56;94053.59;;;2.92;nan
6345;BME280;3205;42.666;23.264;2023-01-26T13:44:28;94054.44;;;2.88;nan
6345;BME280;3205;42.666;23.264;2023-01-26T13:46:59;94063.53;;;3.04;nan
6345;BME280;3205;42.666;23.264;2023-01-26T13:49:35;94060.38;;;3.15;nan
6345;BME280;3205;42.666;23.264;2023-01-26T13:52:15;94074.66;;;2.96;nan
6345;BME280;3205;42.666;23.264;2023-01-26T13:54:43;94070.72;;;2.72;nan
6345;BME280;3205;42.666;23.264;2023-01-26T13:57:11;94049.91;;;2.80;nan
6345;BME280;3205;42.666;23.264;2023-01-26T13:59:48;94054.06;;;2.81;nan
6345;BME280;3205;42.666;23.264;2023-01-26T14:02:21;94053.19;;;2.86;nan
6345;BME280;3205;42.666;23.264;2023-01-26T14:04:51;94031.16;;;2.78;nan
6345;BME280;3205;42.666;23.264;2023-01-26T14:07:24;94036.97;;;2.75;nan
6345;BME280;3205;42.666;23.264;2023-01-26T14:09:52;94035.53;;;2.69;nan